Thorncreek, Indiana
Current Conditions -  °F | °C
As of 9:46 PM on Sunday 23 Nov 2014 (Local Time) from KFWA Reporting Station
Moderate Rain Moderate Rain  
Wind Chill: 52°   Ceiling: 1500
Heat Index: 52°   Visibility: 3mi
Dew Point: 51°   Wind: 12mph
Humidity: 97%   Direction: 130°SE
Pressure: 29.27"   Gusts: NA
Location:  41.1479°N, 85.4772°W
Report Text: KFWA 240246Z 13010KT 3SM RA BR FEW007 BKN015 OVC021 11/11 A2927 RMK AO2 PRESFR P0016 T01110106
Loading
Personal Weather Stations






























Interactive Weather Map New forecast layout! Learn more

10-Day Weather Forecast

Advertisements
Track Severe Weather on mobile